Dickinson - Theodore Roosevelt Rgnl Information

FAA: DIK - ICAO: KDIK

Dickinson - Theodore Roosevelt Rgnl (Airport) Location

State North Dakota
County Stark
City Dickinson
Dickinson - Theodore Roosevelt Rgnl (Airport) is 5 miles south of Dickinson, ND.
Latitude 46-47-50.4000N
Longitude 102-48-06.7000W
Elevation 2,592ft

Dickinson - Theodore Roosevelt Rgnl METARs

METAR KDIK 170356Z AUTO 11009KT 10SM CLR 14/04 A2985 RMK AO2 SLP098 T01390044
Altimeter 29.85"
Temperature 13.9°C (57.0°F)
Wind 110° at 9KT
Clouds Skies are clear.
Visibility 10.0mi
Time observed: 2022-05-17T03:56:00Z

Dickinson - Theodore Roosevelt Rgnl (Airport) Details

Status Operational
Activation October 1938
Ownership Public
Usage Public
Chart BILLINGS
ATC on-site No
Beacon schedule sunset-sunrise
Beacon color clear green

Dickinson - Theodore Roosevelt Rgnl (Airport) Contacts

Owner DICKINSON ARPT AUTHORITY
Owner address 11120 42ND ST SW, DICKINSON, ND 58601-9282
Owner phone 701-483-1062
Manager HAROLD MCCONNELL
Manager address PO BOX 411, CAVALIER, ND 58220
Manager phone 701-520-8631

Dickinson - Theodore Roosevelt Rgnl Radio Frequencies

Dickinson - Theodore Roosevelt Rgnl (Airport) Radio Frequencies

UNICOM 123
Common traffic advisory frequency (CTAF) 123